sensor_id;sensor_type;location;lat;lon;timestamp;pressure;altitude;pressure_sealevel;temperature;humidity
10668;BME280;5382;42.136;24.796;2023-04-28T00:01:27;100090.47;;;11.61;91.34
10668;BME280;5382;42.136;24.796;2023-04-28T00:03:54;100090.59;;;11.60;91.09
10668;BME280;5382;42.136;24.796;2023-04-28T00:06:22;100093.25;;;11.60;89.95
10668;BME280;5382;42.136;24.796;2023-04-28T00:08:49;100097.69;;;11.59;89.60
10668;BME280;5382;42.136;24.796;2023-04-28T00:11:16;100095.88;;;11.60;88.93
10668;BME280;5382;42.136;24.796;2023-04-28T00:13:43;100077.22;;;11.61;87.36
10668;BME280;5382;42.136;24.796;2023-04-28T00:16:11;100085.84;;;11.76;86.97
10668;BME280;5382;42.136;24.796;2023-04-28T00:18:37;100093.06;;;11.74;85.39
10668;BME280;5382;42.136;24.796;2023-04-28T00:21:04;100082.84;;;11.81;84.77
10668;BME280;5382;42.136;24.796;2023-04-28T00:23:31;100097.19;;;11.78;85.24
10668;BME280;5382;42.136;24.796;2023-04-28T00:25:58;100105.47;;;11.73;88.06
10668;BME280;5382;42.136;24.796;2023-04-28T00:28:25;100100.91;;;11.75;87.86
10668;BME280;5382;42.136;24.796;2023-04-28T00:30:51;100102.72;;;11.75;89.86
10668;BME280;5382;42.136;24.796;2023-04-28T00:33:20;100089.91;;;11.69;88.04
10668;BME280;5382;42.136;24.796;2023-04-28T00:35:46;100106.06;;;11.77;87.33
10668;BME280;5382;42.136;24.796;2023-04-28T00:38:13;100100.78;;;11.77;87.76
10668;BME280;5382;42.136;24.796;2023-04-28T00:40:40;100107.28;;;11.73;88.72
10668;BME280;5382;42.136;24.796;2023-04-28T00:43:06;100104.50;;;11.74;88.61
10668;BME280;5382;42.136;24.796;2023-04-28T00:45:33;100101.69;;;11.65;87.93
10668;BME280;5382;42.136;24.796;2023-04-28T00:48:01;100102.06;;;11.71;88.63
10668;BME280;5382;42.136;24.796;2023-04-28T00:50:29;100108.69;;;11.66;88.71
10668;BME280;5382;42.136;24.796;2023-04-28T00:52:56;100092.91;;;11.64;88.54
10668;BME280;5382;42.136;24.796;2023-04-28T00:55:23;100110.16;;;11.70;89.21
10668;BME280;5382;42.136;24.796;2023-04-28T00:57:52;100102.72;;;11.75;88.82
10668;BME280;5382;42.136;24.796;2023-04-28T01:00:21;100103.66;;;11.74;88.06
10668;BME280;5382;42.136;24.796;2023-04-28T01:02:49;100102.03;;;11.60;89.55
10668;BME280;5382;42.136;24.796;2023-04-28T01:05:16;100112.69;;;11.71;88.59
10668;BME280;5382;42.136;24.796;2023-04-28T01:07:45;100107.94;;;11.64;88.57
10668;BME280;5382;42.136;24.796;2023-04-28T01:10:11;100104.69;;;11.60;89.23
10668;BME280;5382;42.136;24.796;2023-04-28T01:12:38;100109.88;;;11.62;90.18
10668;BME280;5382;42.136;24.796;2023-04-28T01:15:07;100107.94;;;11.64;90.13
10668;BME280;5382;42.136;24.796;2023-04-28T01:17:35;100109.56;;;11.53;88.81
10668;BME280;5382;42.136;24.796;2023-04-28T01:20:02;100113.75;;;11.45;90.89
10668;BME280;5382;42.136;24.796;2023-04-28T01:22:29;100118.31;;;11.30;93.00
10668;BME280;5382;42.136;24.796;2023-04-28T01:24:57;100106.28;;;11.26;94.25
10668;BME280;5382;42.136;24.796;2023-04-28T01:27:24;100101.53;;;11.18;97.22
10668;BME280;5382;42.136;24.796;2023-04-28T01:29:51;100106.31;;;11.13;97.35
10668;BME280;5382;42.136;24.796;2023-04-28T01:32:18;100100.34;;;11.09;97.12
10668;BME280;5382;42.136;24.796;2023-04-28T01:34:45;100115.41;;;10.96;99.83
10668;BME280;5382;42.136;24.796;2023-04-28T01:37:12;100105.13;;;10.91;100.00
10668;BME280;5382;42.136;24.796;2023-04-28T01:39:39;100108.66;;;10.92;100.00
10668;BME280;5382;42.136;24.796;2023-04-28T01:42:07;100101.66;;;10.78;100.00
10668;BME280;5382;42.136;24.796;2023-04-28T01:44:33;100109.72;;;10.77;100.00
10668;BME280;5382;42.136;24.796;2023-04-28T01:47:00;100111.31;;;10.66;100.00
10668;BME280;5382;42.136;24.796;2023-04-28T01:49:27;100117.44;;;10.54;100.00
10668;BME280;5382;42.136;24.796;2023-04-28T01:51:54;100111.72;;;10.47;100.00
10668;BME280;5382;42.136;24.796;2023-04-28T01:54:21;100115.63;;;10.55;100.00
10668;BME280;5382;42.136;24.796;2023-04-28T01:56:47;100105.81;;;10.57;100.00
10668;BME280;5382;42.136;24.796;2023-04-28T01:59:15;100110.56;;;10.52;100.00
10668;BME280;5382;42.136;24.796;2023-04-28T02:01:43;100123.34;;;10.45;100.00
10668;BME280;5382;42.136;24.796;2023-04-28T02:04:09;100111.50;;;10.38;100.00
10668;BME280;5382;42.136;24.796;2023-04-28T02:06:36;100115.38;;;10.32;100.00
10668;BME280;5382;42.136;24.796;2023-04-28T02:09:03;100116.03;;;10.36;100.00
10668;BME280;5382;42.136;24.796;2023-04-28T02:11:30;100119.38;;;10.25;100.00
10668;BME280;5382;42.136;24.796;2023-04-28T02:13:58;100110.59;;;10.24;100.00
10668;BME280;5382;42.136;24.796;2023-04-28T02:16:26;100114.69;;;10.16;100.00
10668;BME280;5382;42.136;24.796;2023-04-28T02:18:52;100115.97;;;10.10;100.00
10668;BME280;5382;42.136;24.796;2023-04-28T02:21:19;100109.38;;;10.03;100.00
10668;BME280;5382;42.136;24.796;2023-04-28T02:23:46;100114.25;;;10.09;100.00
10668;BME280;5382;42.136;24.796;2023-04-28T02:26:13;100110.13;;;10.05;100.00
10668;BME280;5382;42.136;24.796;2023-04-28T02:28:39;100113.53;;;10.07;100.00
10668;BME280;5382;42.136;24.796;2023-04-28T02:31:07;100128.63;;;10.05;100.00
10668;BME280;5382;42.136;24.796;2023-04-28T02:33:36;100118.06;;;10.05;100.00
10668;BME280;5382;42.136;24.796;2023-04-28T02:36:04;100119.31;;;9.99;100.00
10668;BME280;5382;42.136;24.796;2023-04-28T02:38:31;100133.59;;;9.97;100.00
10668;BME280;5382;42.136;24.796;2023-04-28T02:40:58;100113.38;;;9.96;100.00
10668;BME280;5382;42.136;24.796;2023-04-28T02:43:25;100114.41;;;9.93;100.00
10668;BME280;5382;42.136;24.796;2023-04-28T02:45:52;100110.94;;;9.93;100.00
10668;BME280;5382;42.136;24.796;2023-04-28T02:48:19;100130.91;;;9.84;100.00
10668;BME280;5382;42.136;24.796;2023-04-28T02:50:47;100116.09;;;9.81;100.00
10668;BME280;5382;42.136;24.796;2023-04-28T02:53:15;100131.81;;;9.83;100.00
10668;BME280;5382;42.136;24.796;2023-04-28T02:55:41;100121.75;;;9.75;100.00
10668;BME280;5382;42.136;24.796;2023-04-28T02:58:08;100152.13;;;9.82;100.00
10668;BME280;5382;42.136;24.796;2023-04-28T03:00:35;100146.09;;;9.80;100.00
10668;BME280;5382;42.136;24.796;2023-04-28T03:03:02;100134.97;;;9.75;100.00
10668;BME280;5382;42.136;24.796;2023-04-28T03:05:29;100165.75;;;9.76;100.00
10668;BME280;5382;42.136;24.796;2023-04-28T03:07:57;100145.38;;;9.64;100.00
10668;BME280;5382;42.136;24.796;2023-04-28T03:10:24;100147.75;;;9.69;100.00
10668;BME280;5382;42.136;24.796;2023-04-28T03:12:51;100156.78;;;9.65;100.00
10668;BME280;5382;42.136;24.796;2023-04-28T03:15:18;100155.13;;;9.64;100.00
10668;BME280;5382;42.136;24.796;2023-04-28T03:17:45;100177.28;;;9.61;100.00
10668;BME280;5382;42.136;24.796;2023-04-28T03:20:12;100167.28;;;9.52;100.00
10668;BME280;5382;42.136;24.796;2023-04-28T03:22:38;100174.53;;;9.63;100.00
10668;BME280;5382;42.136;24.796;2023-04-28T03:25:07;100177.28;;;9.61;100.00
10668;BME280;5382;42.136;24.796;2023-04-28T03:27:34;100187.19;;;9.57;99.94
10668;BME280;5382;42.136;24.796;2023-04-28T03:30:01;100195.22;;;9.56;99.61
10668;BME280;5382;42.136;24.796;2023-04-28T03:32:28;100193.50;;;9.55;100.00
10668;BME280;5382;42.136;24.796;2023-04-28T03:34:55;100196.56;;;9.49;100.00
10668;BME280;5382;42.136;24.796;2023-04-28T03:37:21;100197.09;;;9.54;100.00
10668;BME280;5382;42.136;24.796;2023-04-28T03:39:48;100203.91;;;9.58;100.00
10668;BME280;5382;42.136;24.796;2023-04-28T03:42:16;100212.97;;;9.54;99.45
10668;BME280;5382;42.136;24.796;2023-04-28T03:44:43;100220.81;;;9.55;100.00
10668;BME280;5382;42.136;24.796;2023-04-28T03:47:11;100220.50;;;9.60;98.11
10668;BME280;5382;42.136;24.796;2023-04-28T03:49:37;100213.72;;;9.56;98.53
10668;BME280;5382;42.136;24.796;2023-04-28T03:52:04;100225.28;;;9.68;96.67
10668;BME280;5382;42.136;24.796;2023-04-28T03:54:31;100223.81;;;9.64;98.80
10668;BME280;5382;42.136;24.796;2023-04-28T03:56:57;100230.69;;;9.66;97.14
10668;BME280;5382;42.136;24.796;2023-04-28T03:59:26;100236.34;;;9.60;98.87
10668;BME280;5382;42.136;24.796;2023-04-28T04:01:53;100234.75;;;9.72;98.05
10668;BME280;5382;42.136;24.796;2023-04-28T04:04:20;100244.56;;;9.70;97.01
10668;BME280;5382;42.136;24.796;2023-04-28T04:06:46;100251.25;;;9.75;97.28
10668;BME280;5382;42.136;24.796;2023-04-28T04:09:13;100252.75;;;9.79;95.30
10668;BME280;5382;42.136;24.796;2023-04-28T04:11:40;100255.47;;;9.78;96.46
10668;BME280;5382;42.136;24.796;2023-04-28T04:14:07;100251.16;;;9.77;96.27
10668;BME280;5382;42.136;24.796;2023-04-28T04:16:36;100257.00;;;9.82;95.92
10668;BME280;5382;42.136;24.796;2023-04-28T04:19:02;100271.66;;;9.73;95.71
10668;BME280;5382;42.136;24.796;2023-04-28T04:21:29;100260.41;;;9.70;96.56
10668;BME280;5382;42.136;24.796;2023-04-28T04:23:57;100261.06;;;9.73;95.39
10668;BME280;5382;42.136;24.796;2023-04-28T04:26:24;100267.50;;;9.69;95.54
10668;BME280;5382;42.136;24.796;2023-04-28T04:28:51;100269.72;;;9.75;94.93
10668;BME280;5382;42.136;24.796;2023-04-28T04:31:17;100273.91;;;9.79;95.13
10668;BME280;5382;42.136;24.796;2023-04-28T04:33:46;100264.09;;;9.81;95.33
10668;BME280;5382;42.136;24.796;2023-04-28T04:36:13;100272.56;;;9.87;94.63
10668;BME280;5382;42.136;24.796;2023-04-28T04:38:40;100266.44;;;9.86;94.94
10668;BME280;5382;42.136;24.796;2023-04-28T04:41:06;100273.34;;;9.89;94.91
10668;BME280;5382;42.136;24.796;2023-04-28T04:43:33;100269.72;;;9.90;94.79
10668;BME280;5382;42.136;24.796;2023-04-28T04:46:00;100288.78;;;9.95;94.61
10668;BME280;5382;42.136;24.796;2023-04-28T04:48:28;100276.69;;;9.91;94.37
10668;BME280;5382;42.136;24.796;2023-04-28T04:50:56;100282.34;;;9.99;93.43
10668;BME280;5382;42.136;24.796;2023-04-28T04:53:23;100273.13;;;9.92;93.78
10668;BME280;5382;42.136;24.796;2023-04-28T04:55:50;100278.78;;;9.86;93.93
10668;BME280;5382;42.136;24.796;2023-04-28T04:58:16;100280.66;;;9.98;93.44
10668;BME280;5382;42.136;24.796;2023-04-28T05:00:43;100295.00;;;9.94;93.80
10668;BME280;5382;42.136;24.796;2023-04-28T05:03:10;100301.97;;;10.09;94.54
10668;BME280;5382;42.136;24.796;2023-04-28T05:05:37;100302.09;;;10.08;93.77
10668;BME280;5382;42.136;24.796;2023-04-28T05:08:05;100299.25;;;10.11;94.84
10668;BME280;5382;42.136;24.796;2023-04-28T05:10:32;100296.13;;;10.04;93.91
10668;BME280;5382;42.136;24.796;2023-04-28T05:12:59;100305.56;;;10.08;94.78
10668;BME280;5382;42.136;24.796;2023-04-28T05:15:26;100311.63;;;10.10;94.37
10668;BME280;5382;42.136;24.796;2023-04-28T05:17:52;100309.06;;;10.09;94.01
10668;BME280;5382;42.136;24.796;2023-04-28T05:20:19;100288.94;;;10.06;95.44
10668;BME280;5382;42.136;24.796;2023-04-28T05:22:46;100323.03;;;10.11;94.80
10668;BME280;5382;42.136;24.796;2023-04-28T05:25:14;100311.22;;;10.16;94.87
10668;BME280;5382;42.136;24.796;2023-04-28T05:27:41;100354.47;;;10.30;92.42
10668;BME280;5382;42.136;24.796;2023-04-28T05:30:25;100317.91;;;10.22;93.04
10668;BME280;5382;42.136;24.796;2023-04-28T05:32:52;100327.44;;;10.24;92.62
10668;BME280;5382;42.136;24.796;2023-04-28T05:35:19;100337.78;;;10.29;91.84
10668;BME280;5382;42.136;24.796;2023-04-28T05:37:46;100322.00;;;10.28;93.18
10668;BME280;5382;42.136;24.796;2023-04-28T05:40:14;100334.34;;;10.41;93.04
10668;BME280;5382;42.136;24.796;2023-04-28T05:42:41;100333.94;;;10.47;90.78
10668;BME280;5382;42.136;24.796;2023-04-28T05:45:09;100339.59;;;10.56;89.99
10668;BME280;5382;42.136;24.796;2023-04-28T05:47:36;100333.06;;;10.61;88.47
10668;BME280;5382;42.136;24.796;2023-04-28T05:50:03;100341.59;;;10.52;86.74
10668;BME280;5382;42.136;24.796;2023-04-28T05:52:30;100339.50;;;10.57;89.11
10668;BME280;5382;42.136;24.796;2023-04-28T05:54:57;100342.59;;;10.64;89.20
10668;BME280;5382;42.136;24.796;2023-04-28T05:57:25;100347.91;;;10.64;86.87
10668;BME280;5382;42.136;24.796;2023-04-28T05:59:52;100350.59;;;10.77;86.84
10668;BME280;5382;42.136;24.796;2023-04-28T06:02:19;100361.81;;;10.80;87.06
10668;BME280;5382;42.136;24.796;2023-04-28T06:04:45;100350.94;;;10.85;85.42
10668;BME280;5382;42.136;24.796;2023-04-28T06:07:12;100364.50;;;10.93;86.03
10668;BME280;5382;42.136;24.796;2023-04-28T06:09:39;100347.25;;;10.87;86.47
10668;BME280;5382;42.136;24.796;2023-04-28T06:12:06;100343.97;;;10.97;86.50
10668;BME280;5382;42.136;24.796;2023-04-28T06:14:34;100347.31;;;11.13;84.52
10668;BME280;5382;42.136;24.796;2023-04-28T06:17:02;100347.94;;;11.17;84.71
10668;BME280;5382;42.136;24.796;2023-04-28T06:19:29;100359.28;;;11.19;84.78
10668;BME280;5382;42.136;24.796;2023-04-28T06:21:55;100350.78;;;11.13;85.17
10668;BME280;5382;42.136;24.796;2023-04-28T06:24:22;100363.91;;;11.15;84.88
10668;BME280;5382;42.136;24.796;2023-04-28T06:26:49;100355.47;;;11.23;85.51
10668;BME280;5382;42.136;24.796;2023-04-28T06:29:16;100351.91;;;11.37;86.73
10668;BME280;5382;42.136;24.796;2023-04-28T06:31:46;100351.16;;;11.47;84.49
10668;BME280;5382;42.136;24.796;2023-04-28T06:34:13;100369.38;;;11.39;86.13
10668;BME280;5382;42.136;24.796;2023-04-28T06:36:39;100357.22;;;11.49;85.73
10668;BME280;5382;42.136;24.796;2023-04-28T06:39:06;100359.66;;;11.52;87.43
10668;BME280;5382;42.136;24.796;2023-04-28T06:41:33;100355.09;;;11.54;85.35
10668;BME280;5382;42.136;24.796;2023-04-28T06:44:00;100360.78;;;11.48;86.42
10668;BME280;5382;42.136;24.796;2023-04-28T06:46:27;100362.31;;;11.52;85.47
10668;BME280;5382;42.136;24.796;2023-04-28T06:48:55;100349.16;;;11.64;87.87
10668;BME280;5382;42.136;24.796;2023-04-28T06:51:21;100353.50;;;11.77;83.95
10668;BME280;5382;42.136;24.796;2023-04-28T06:53:48;100364.00;;;11.79;83.89
10668;BME280;5382;42.136;24.796;2023-04-28T06:56:17;100355.31;;;11.90;83.86
10668;BME280;5382;42.136;24.796;2023-04-28T06:58:44;100361.06;;;11.96;81.23
10668;BME280;5382;42.136;24.796;2023-04-28T07:01:11;100355.00;;;11.94;81.97
10668;BME280;5382;42.136;24.796;2023-04-28T07:03:38;100353.00;;;11.98;79.28
10668;BME280;5382;42.136;24.796;2023-04-28T07:06:06;100355.19;;;12.04;81.95
10668;BME280;5382;42.136;24.796;2023-04-28T07:08:34;100360.72;;;12.14;79.20
10668;BME280;5382;42.136;24.796;2023-04-28T07:11:01;100353.38;;;12.17;78.81
10668;BME280;5382;42.136;24.796;2023-04-28T07:13:28;100355.78;;;12.33;77.61
10668;BME280;5382;42.136;24.796;2023-04-28T07:15:55;100354.16;;;12.43;73.62
10668;BME280;5382;42.136;24.796;2023-04-28T07:18:22;100356.81;;;12.43;73.28
10668;BME280;5382;42.136;24.796;2023-04-28T07:20:49;100354.56;;;12.50;70.78
10668;BME280;5382;42.136;24.796;2023-04-28T07:23:18;100350.84;;;12.53;73.28
10668;BME280;5382;42.136;24.796;2023-04-28T07:25:44;100351.34;;;12.58;75.16
10668;BME280;5382;42.136;24.796;2023-04-28T07:28:11;100347.28;;;12.65;74.78
10668;BME280;5382;42.136;24.796;2023-04-28T07:30:38;100344.28;;;12.70;73.10
10668;BME280;5382;42.136;24.796;2023-04-28T07:33:05;100343.00;;;12.75;72.96
10668;BME280;5382;42.136;24.796;2023-04-28T07:35:32;100341.81;;;12.79;72.12
10668;BME280;5382;42.136;24.796;2023-04-28T07:37:59;100349.81;;;12.91;73.59
10668;BME280;5382;42.136;24.796;2023-04-28T07:40:27;100341.34;;;12.85;73.01
10668;BME280;5382;42.136;24.796;2023-04-28T07:42:54;100338.34;;;12.90;72.97
10668;BME280;5382;42.136;24.796;2023-04-28T07:45:21;100345.41;;;13.02;74.46
10668;BME280;5382;42.136;24.796;2023-04-28T07:47:47;100338.53;;;13.11;73.38
10668;BME280;5382;42.136;24.796;2023-04-28T07:50:14;100344.44;;;13.27;73.40
10668;BME280;5382;42.136;24.796;2023-04-28T07:52:42;100334.81;;;13.38;71.79
10668;BME280;5382;42.136;24.796;2023-04-28T07:55:09;100336.72;;;13.36;72.47
10668;BME280;5382;42.136;24.796;2023-04-28T07:57:37;100332.38;;;13.35;74.06
10668;BME280;5382;42.136;24.796;2023-04-28T08:00:05;100323.44;;;13.47;71.82
10668;BME280;5382;42.136;24.796;2023-04-28T08:02:32;100328.41;;;13.63;71.21
10668;BME280;5382;42.136;24.796;2023-04-28T08:04:59;100334.13;;;13.58;70.68
10668;BME280;5382;42.136;24.796;2023-04-28T08:07:27;100331.47;;;13.58;70.56
10668;BME280;5382;42.136;24.796;2023-04-28T08:09:54;100322.63;;;13.69;78.72
10668;BME280;5382;42.136;24.796;2023-04-28T08:12:21;100327.00;;;13.81;83.56
10668;BME280;5382;42.136;24.796;2023-04-28T08:14:49;100324.09;;;13.84;84.97
10668;BME280;5382;42.136;24.796;2023-04-28T08:17:16;100318.16;;;13.92;78.25
10668;BME280;5382;42.136;24.796;2023-04-28T08:19:43;100318.16;;;14.03;74.06
10668;BME280;5382;42.136;24.796;2023-04-28T08:22:10;100316.44;;;14.13;69.75
10668;BME280;5382;42.136;24.796;2023-04-28T08:24:38;100322.00;;;14.22;65.87
10668;BME280;5382;42.136;24.796;2023-04-28T08:27:05;100313.41;;;14.40;66.82
10668;BME280;5382;42.136;24.796;2023-04-28T08:29:32;100307.53;;;14.58;69.71
10668;BME280;5382;42.136;24.796;2023-04-28T08:32:00;100302.69;;;14.63;67.02
10668;BME280;5382;42.136;24.796;2023-04-28T08:34:27;100310.88;;;14.71;64.96
10668;BME280;5382;42.136;24.796;2023-04-28T08:36:54;100309.78;;;14.74;64.11
10668;BME280;5382;42.136;24.796;2023-04-28T08:39:21;100303.91;;;14.91;63.53
10668;BME280;5382;42.136;24.796;2023-04-28T08:41:48;100295.88;;;15.02;64.01
10668;BME280;5382;42.136;24.796;2023-04-28T08:44:15;100300.78;;;15.28;63.88
10668;BME280;5382;42.136;24.796;2023-04-28T08:46:42;100302.50;;;15.29;61.64
10668;BME280;5382;42.136;24.796;2023-04-28T08:49:14;100301.66;;;15.29;59.09
10668;BME280;5382;42.136;24.796;2023-04-28T08:51:44;100284.34;;;15.23;58.47
10668;BME280;5382;42.136;24.796;2023-04-28T08:54:13;100296.78;;;15.34;58.73
10668;BME280;5382;42.136;24.796;2023-04-28T08:56:41;100294.03;;;15.45;58.70
10668;BME280;5382;42.136;24.796;2023-04-28T08:59:10;100284.38;;;15.75;58.35
10668;BME280;5382;42.136;24.796;2023-04-28T09:01:37;100288.13;;;15.93;65.49
10668;BME280;5382;42.136;24.796;2023-04-28T09:04:04;100276.25;;;15.76;69.23
10668;BME280;5382;42.136;24.796;2023-04-28T09:06:34;100270.09;;;15.85;77.14
10668;BME280;5382;42.136;24.796;2023-04-28T09:09:24;100285.69;;;15.80;73.40
10668;BME280;5382;42.136;24.796;2023-04-28T09:11:52;100263.38;;;15.60;72.97
10668;BME280;5382;42.136;24.796;2023-04-28T09:14:20;100278.75;;;15.47;73.93
10668;BME280;5382;42.136;24.796;2023-04-28T09:16:47;100280.22;;;15.91;73.37
10668;BME280;5382;42.136;24.796;2023-04-28T09:19:14;100275.88;;;15.90;76.43
10668;BME280;5382;42.136;24.796;2023-04-28T09:21:51;100273.47;;;15.87;75.63
10668;BME280;5382;42.136;24.796;2023-04-28T09:24:25;100265.38;;;15.99;73.08
10668;BME280;5382;42.136;24.796;2023-04-28T09:26:52;100271.03;;;16.15;70.25
10668;BME280;5382;42.136;24.796;2023-04-28T09:29:19;100273.16;;;16.21;66.27
10668;BME280;5382;42.136;24.796;2023-04-28T09:31:46;100261.25;;;16.45;67.37
10668;BME280;5382;42.136;24.796;2023-04-28T09:34:12;100268.25;;;16.75;68.54
10668;BME280;5382;42.136;24.796;2023-04-28T09:36:40;100260.16;;;16.86;66.78
10668;BME280;5382;42.136;24.796;2023-04-28T09:39:08;100257.44;;;16.96;66.09
10668;BME280;5382;42.136;24.796;2023-04-28T09:41:37;100253.63;;;16.98;63.03
10668;BME280;5382;42.136;24.796;2023-04-28T09:44:12;100251.59;;;17.39;61.04
10668;BME280;5382;42.136;24.796;2023-04-28T09:46:39;100247.94;;;17.68;61.24
10668;BME280;5382;42.136;24.796;2023-04-28T09:49:06;100244.28;;;17.32;59.25
10668;BME280;5382;42.136;24.796;2023-04-28T09:51:33;100244.47;;;17.20;58.98
10668;BME280;5382;42.136;24.796;2023-04-28T09:54:01;100236.16;;;17.14;58.41
10668;BME280;5382;42.136;24.796;2023-04-28T09:56:30;100242.81;;;17.10;56.18
10668;BME280;5382;42.136;24.796;2023-04-28T09:58:58;100237.78;;;17.44;61.63
10668;BME280;5382;42.136;24.796;2023-04-28T10:01:27;100231.50;;;17.26;60.34
10668;BME280;5382;42.136;24.796;2023-04-28T10:03:57;100229.41;;;17.19;60.20
10668;BME280;5382;42.136;24.796;2023-04-28T10:06:26;100239.06;;;17.40;63.60
10668;BME280;5382;42.136;24.796;2023-04-28T10:08:54;100222.94;;;17.22;61.13
10668;BME280;5382;42.136;24.796;2023-04-28T10:11:23;100226.44;;;17.32;60.41
10668;BME280;5382;42.136;24.796;2023-04-28T10:13:52;100219.28;;;17.13;60.99
10668;BME280;5382;42.136;24.796;2023-04-28T10:16:19;100219.34;;;16.94;62.38
10668;BME280;5382;42.136;24.796;2023-04-28T10:18:46;100213.41;;;16.90;64.81
10668;BME280;5382;42.136;24.796;2023-04-28T10:21:17;100219.69;;;17.18;62.86
10668;BME280;5382;42.136;24.796;2023-04-28T10:24:08;100213.41;;;17.84;58.93
10668;BME280;5382;42.136;24.796;2023-04-28T10:27:02;100213.38;;;18.30;67.23
10668;BME280;5382;42.136;24.796;2023-04-28T10:29:32;100207.34;;;18.46;61.66
10668;BME280;5382;42.136;24.796;2023-04-28T10:32:16;100208.78;;;18.40;56.30
10668;BME280;5382;42.136;24.796;2023-04-28T10:34:43;100206.84;;;18.15;56.13
10668;BME280;5382;42.136;24.796;2023-04-28T10:37:10;100200.28;;;18.63;53.80
10668;BME280;5382;42.136;24.796;2023-04-28T10:39:39;100194.81;;;19.16;56.96
10668;BME280;5382;42.136;24.796;2023-04-28T10:45:59;100191.38;;;20.01;50.64
10668;BME280;5382;42.136;24.796;2023-04-28T10:48:51;100183.38;;;20.58;50.44
10668;BME280;5382;42.136;24.796;2023-04-28T10:51:36;100172.75;;;20.98;47.03
10668;BME280;5382;42.136;24.796;2023-04-28T10:54:21;100174.00;;;21.82;44.17
10668;BME280;5382;42.136;24.796;2023-04-28T10:57:18;100175.25;;;21.16;42.23
10668;BME280;5382;42.136;24.796;2023-04-28T10:59:46;100175.63;;;20.31;43.61
10668;BME280;5382;42.136;24.796;2023-04-28T11:02:42;100175.94;;;20.44;43.65
10668;BME280;5382;42.136;24.796;2023-04-28T11:05:17;100171.59;;;20.67;42.46
10668;BME280;5382;42.136;24.796;2023-04-28T11:14:30;100171.09;;;20.88;42.79
10668;BME280;5382;42.136;24.796;2023-04-28T11:16:58;100170.34;;;21.19;43.72
10668;BME280;5382;42.136;24.796;2023-04-28T11:19:29;100165.81;;;21.11;41.51
10668;BME280;5382;42.136;24.796;2023-04-28T11:21:58;100174.22;;;21.25;42.15
10668;BME280;5382;42.136;24.796;2023-04-28T11:24:26;100173.31;;;21.49;43.11
10668;BME280;5382;42.136;24.796;2023-04-28T11:26:54;100174.41;;;22.02;38.81
10668;BME280;5382;42.136;24.796;2023-04-28T11:29:30;100164.34;;;22.65;38.60
10668;BME280;5382;42.136;24.796;2023-04-28T11:31:58;100159.66;;;22.21;40.72
10668;BME280;5382;42.136;24.796;2023-04-28T11:34:25;100160.91;;;21.79;40.01
10668;BME280;5382;42.136;24.796;2023-04-28T11:36:53;100140.22;;;22.63;42.89
10668;BME280;5382;42.136;24.796;2023-04-28T11:39:25;100143.53;;;22.89;39.38
10668;BME280;5382;42.136;24.796;2023-04-28T11:41:53;100158.47;;;22.99;37.71
10668;BME280;5382;42.136;24.796;2023-04-28T11:44:22;100142.56;;;23.19;38.43
10668;BME280;5382;42.136;24.796;2023-04-28T11:46:50;100143.41;;;23.35;37.00
10668;BME280;5382;42.136;24.796;2023-04-28T11:49:20;100143.06;;;23.89;37.53
10668;BME280;5382;42.136;24.796;2023-04-28T11:51:49;100140.94;;;24.06;37.80
10668;BME280;5382;42.136;24.796;2023-04-28T11:54:21;100132.13;;;24.40;37.02
10668;BME280;5382;42.136;24.796;2023-04-28T11:56:48;100136.53;;;24.97;36.46
10668;BME280;5382;42.136;24.796;2023-04-28T11:59:15;100130.75;;;25.35;37.03
10668;BME280;5382;42.136;24.796;2023-04-28T12:01:46;100139.53;;;25.92;36.73
10668;BME280;5382;42.136;24.796;2023-04-28T12:04:14;100126.41;;;26.09;35.85
10668;BME280;5382;42.136;24.796;2023-04-28T12:06:58;100102.88;;;25.55;34.97
10668;BME280;5382;42.136;24.796;2023-04-28T12:09:26;100118.53;;;25.66;32.87
10668;BME280;5382;42.136;24.796;2023-04-28T12:11:54;100111.84;;;26.63;32.75
10668;BME280;5382;42.136;24.796;2023-04-28T12:14:22;100100.22;;;25.81;34.11
10668;BME280;5382;42.136;24.796;2023-04-28T12:16:49;100097.91;;;25.17;35.48
10668;BME280;5382;42.136;24.796;2023-04-28T12:19:17;100093.47;;;25.09;35.14
10668;BME280;5382;42.136;24.796;2023-04-28T12:21:58;100098.88;;;25.44;34.13
10668;BME280;5382;42.136;24.796;2023-04-28T12:24:26;100090.94;;;26.10;33.11
10668;BME280;5382;42.136;24.796;2023-04-28T12:26:53;100088.84;;;26.46;32.54
10668;BME280;5382;42.136;24.796;2023-04-28T12:29:37;100075.22;;;26.92;32.38
10668;BME280;5382;42.136;24.796;2023-04-28T12:32:06;100085.97;;;26.67;32.49
10668;BME280;5382;42.136;24.796;2023-04-28T12:34:33;100074.91;;;26.56;33.02
10668;BME280;5382;42.136;24.796;2023-04-28T12:37:00;100074.66;;;26.30;32.21
10668;BME280;5382;42.136;24.796;2023-04-28T12:39:31;100058.78;;;26.74;31.94
10668;BME280;5382;42.136;24.796;2023-04-28T12:41:58;100050.03;;;26.25;33.35
10668;BME280;5382;42.136;24.796;2023-04-28T12:44:27;100063.19;;;26.75;33.07
10668;BME280;5382;42.136;24.796;2023-04-28T12:46:54;100049.19;;;26.71;32.30
10668;BME280;5382;42.136;24.796;2023-04-28T12:49:21;100051.31;;;26.36;31.38
10668;BME280;5382;42.136;24.796;2023-04-28T12:51:48;100046.41;;;25.65;32.30
10668;BME280;5382;42.136;24.796;2023-04-28T12:54:15;100054.03;;;26.03;32.44
10668;BME280;5382;42.136;24.796;2023-04-28T12:56:43;100037.94;;;26.28;31.97
10668;BME280;5382;42.136;24.796;2023-04-28T12:59:10;100046.44;;;25.72;32.51
10668;BME280;5382;42.136;24.796;2023-04-28T13:01:36;100043.78;;;25.85;33.19
10668;BME280;5382;42.136;24.796;2023-04-28T13:04:03;100037.13;;;26.21;31.71
10668;BME280;5382;42.136;24.796;2023-04-28T13:06:31;100037.72;;;26.69;31.48